sensor_id;sensor_type;location;lat;lon;timestamp;temperature;humidity
50560;DHT22;36510;52.610;13.468;2022-10-31T00:02:15;13.50;35.10
50560;DHT22;36510;52.610;13.468;2022-10-31T00:07:06;13.20;37.70
50560;DHT22;36510;52.610;13.468;2022-10-31T00:11:56;13.20;38.40
50560;DHT22;36510;52.610;13.468;2022-10-31T00:16:47;13.40;38.00
50560;DHT22;36510;52.610;13.468;2022-10-31T00:21:37;13.50;36.90
50560;DHT22;36510;52.610;13.468;2022-10-31T00:26:29;13.60;35.80
50560;DHT22;36510;52.610;13.468;2022-10-31T00:31:19;13.60;34.70
50560;DHT22;36510;52.610;13.468;2022-10-31T00:36:13;13.40;35.40
50560;DHT22;36510;52.610;13.468;2022-10-31T00:41:03;13.30;36.80
50560;DHT22;36510;52.610;13.468;2022-10-31T00:45:54;13.30;36.60
50560;DHT22;36510;52.610;13.468;2022-10-31T00:50:45;13.30;35.60
50560;DHT22;36510;52.610;13.468;2022-10-31T00:55:35;13.40;35.00
50560;DHT22;36510;52.610;13.468;2022-10-31T01:00:26;13.50;34.60
50560;DHT22;36510;52.610;13.468;2022-10-31T01:05:17;13.50;33.80
50560;DHT22;36510;52.610;13.468;2022-10-31T01:10:08;13.30;34.00
50560;DHT22;36510;52.610;13.468;2022-10-31T01:14:59;13.10;34.90
50560;DHT22;36510;52.610;13.468;2022-10-31T01:19:49;12.90;35.70
50560;DHT22;36510;52.610;13.468;2022-10-31T01:24:40;12.90;36.60
50560;DHT22;36510;52.610;13.468;2022-10-31T01:29:30;12.90;36.50
50560;DHT22;36510;52.610;13.468;2022-10-31T01:34:21;12.90;36.50
50560;DHT22;36510;52.610;13.468;2022-10-31T01:39:13;12.90;36.20
50560;DHT22;36510;52.610;13.468;2022-10-31T01:49:12;12.90;36.10
50560;DHT22;36510;52.610;13.468;2022-10-31T01:54:06;12.90;35.80
50560;DHT22;36510;52.610;13.468;2022-10-31T01:58:59;12.90;35.70
50560;DHT22;36510;52.610;13.468;2022-10-31T02:03:51;13.00;35.00
50560;DHT22;36510;52.610;13.468;2022-10-31T02:08:42;12.90;34.90
50560;DHT22;36510;52.610;13.468;2022-10-31T02:13:34;12.80;35.60
50560;DHT22;36510;52.610;13.468;2022-10-31T02:18:26;12.80;35.80
50560;DHT22;36510;52.610;13.468;2022-10-31T02:34:17;12.80;35.50
50560;DHT22;36510;52.610;13.468;2022-10-31T02:44:15;12.80;34.80
50560;DHT22;36510;52.610;13.468;2022-10-31T02:49:24;12.70;35.30
50560;DHT22;36510;52.610;13.468;2022-10-31T02:54:23;12.60;35.80
50560;DHT22;36510;52.610;13.468;2022-10-31T02:59:14;12.40;35.40
50560;DHT22;36510;52.610;13.468;2022-10-31T03:20:00;12.10;37.80
50560;DHT22;36510;52.610;13.468;2022-10-31T03:24:52;12.00;37.90
50560;DHT22;36510;52.610;13.468;2022-10-31T03:29:45;12.00;37.20
50560;DHT22;36510;52.610;13.468;2022-10-31T03:34:38;11.90;37.60
50560;DHT22;36510;52.610;13.468;2022-10-31T03:39:30;11.80;37.30
50560;DHT22;36510;52.610;13.468;2022-10-31T03:44:22;11.90;37.90
50560;DHT22;36510;52.610;13.468;2022-10-31T03:49:14;11.80;37.00
50560;DHT22;36510;52.610;13.468;2022-10-31T03:54:26;11.80;37.50
50560;DHT22;36510;52.610;13.468;2022-10-31T03:59:26;11.90;37.30
50560;DHT22;36510;52.610;13.468;2022-10-31T04:04:19;12.10;36.10
50560;DHT22;36510;52.610;13.468;2022-10-31T04:09:10;12.20;35.30
50560;DHT22;36510;52.610;13.468;2022-10-31T04:14:02;12.30;34.50
50560;DHT22;36510;52.610;13.468;2022-10-31T04:18:55;12.30;34.20
50560;DHT22;36510;52.610;13.468;2022-10-31T04:23:45;12.40;34.50
50560;DHT22;36510;52.610;13.468;2022-10-31T04:28:36;12.20;33.60
50560;DHT22;36510;52.610;13.468;2022-10-31T04:33:26;12.20;34.10
50560;DHT22;36510;52.610;13.468;2022-10-31T04:38:17;11.90;34.10
50560;DHT22;36510;52.610;13.468;2022-10-31T04:43:07;11.90;35.50
50560;DHT22;36510;52.610;13.468;2022-10-31T04:47:57;11.90;35.20
50560;DHT22;36510;52.610;13.468;2022-10-31T04:52:48;12.00;34.70
50560;DHT22;36510;52.610;13.468;2022-10-31T04:57:46;12.00;34.90
50560;DHT22;36510;52.610;13.468;2022-10-31T05:02:44;12.00;34.50
50560;DHT22;36510;52.610;13.468;2022-10-31T05:07:40;11.90;34.90
50560;DHT22;36510;52.610;13.468;2022-10-31T05:12:30;11.90;35.20
50560;DHT22;36510;52.610;13.468;2022-10-31T05:17:21;11.90;35.00
50560;DHT22;36510;52.610;13.468;2022-10-31T05:22:11;11.80;34.50
50560;DHT22;36510;52.610;13.468;2022-10-31T05:27:02;11.70;35.50
50560;DHT22;36510;52.610;13.468;2022-10-31T05:31:52;11.50;35.80
50560;DHT22;36510;52.610;13.468;2022-10-31T05:36:43;11.30;36.50
50560;DHT22;36510;52.610;13.468;2022-10-31T05:41:33;11.20;37.60
50560;DHT22;36510;52.610;13.468;2022-10-31T05:46:24;11.20;39.20
50560;DHT22;36510;52.610;13.468;2022-10-31T05:51:14;11.20;39.10
50560;DHT22;36510;52.610;13.468;2022-10-31T05:56:05;11.20;39.70
50560;DHT22;36510;52.610;13.468;2022-10-31T06:00:55;11.30;40.70
50560;DHT22;36510;52.610;13.468;2022-10-31T06:05:46;11.40;39.80
50560;DHT22;36510;52.610;13.468;2022-10-31T06:10:36;11.50;38.70
50560;DHT22;36510;52.610;13.468;2022-10-31T06:15:26;11.50;37.80
50560;DHT22;36510;52.610;13.468;2022-10-31T06:20:17;11.50;38.60
50560;DHT22;36510;52.610;13.468;2022-10-31T06:25:08;11.50;39.30
50560;DHT22;36510;52.610;13.468;2022-10-31T06:29:58;11.50;40.00
50560;DHT22;36510;52.610;13.468;2022-10-31T06:34:49;11.50;39.90
50560;DHT22;36510;52.610;13.468;2022-10-31T06:39:40;11.40;40.90
50560;DHT22;36510;52.610;13.468;2022-10-31T06:44:31;11.50;41.50
50560;DHT22;36510;52.610;13.468;2022-10-31T06:49:21;11.50;42.60
50560;DHT22;36510;52.610;13.468;2022-10-31T06:54:12;11.50;43.40
50560;DHT22;36510;52.610;13.468;2022-10-31T06:59:02;11.60;44.20
50560;DHT22;36510;52.610;13.468;2022-10-31T07:03:53;11.70;45.00
50560;DHT22;36510;52.610;13.468;2022-10-31T07:08:43;11.90;44.40
50560;DHT22;36510;52.610;13.468;2022-10-31T07:13:34;12.10;46.00
50560;DHT22;36510;52.610;13.468;2022-10-31T07:18:24;12.20;50.50
50560;DHT22;36510;52.610;13.468;2022-10-31T07:23:15;12.40;53.00
50560;DHT22;36510;52.610;13.468;2022-10-31T07:28:06;12.70;52.90
50560;DHT22;36510;52.610;13.468;2022-10-31T07:32:56;12.90;52.90
50560;DHT22;36510;52.610;13.468;2022-10-31T07:37:48;13.20;54.50
50560;DHT22;36510;52.610;13.468;2022-10-31T07:42:40;13.50;54.10
50560;DHT22;36510;52.610;13.468;2022-10-31T07:47:41;13.70;55.80
50560;DHT22;36510;52.610;13.468;2022-10-31T07:52:31;14.00;57.90
50560;DHT22;36510;52.610;13.468;2022-10-31T07:57:22;14.10;59.50
50560;DHT22;36510;52.610;13.468;2022-10-31T08:02:12;14.30;59.20
50560;DHT22;36510;52.610;13.468;2022-10-31T08:07:03;14.50;58.70
50560;DHT22;36510;52.610;13.468;2022-10-31T08:11:53;14.60;58.30
50560;DHT22;36510;52.610;13.468;2022-10-31T08:16:44;14.80;57.90
50560;DHT22;36510;52.610;13.468;2022-10-31T08:21:34;14.80;57.90
50560;DHT22;36510;52.610;13.468;2022-10-31T08:26:25;14.90;58.00
50560;DHT22;36510;52.610;13.468;2022-10-31T08:31:15;14.90;57.80
50560;DHT22;36510;52.610;13.468;2022-10-31T08:36:06;15.00;57.60
50560;DHT22;36510;52.610;13.468;2022-10-31T08:40:56;15.00;58.80
50560;DHT22;36510;52.610;13.468;2022-10-31T08:45:49;15.10;58.80
50560;DHT22;36510;52.610;13.468;2022-10-31T08:50:40;15.10;58.10
50560;DHT22;36510;52.610;13.468;2022-10-31T08:55:33;15.10;57.70
50560;DHT22;36510;52.610;13.468;2022-10-31T09:00:24;15.20;57.70
50560;DHT22;36510;52.610;13.468;2022-10-31T09:05:15;15.20;57.30
50560;DHT22;36510;52.610;13.468;2022-10-31T09:10:05;15.30;57.10
50560;DHT22;36510;52.610;13.468;2022-10-31T09:14:56;15.30;56.80
50560;DHT22;36510;52.610;13.468;2022-10-31T09:19:46;15.30;56.90
50560;DHT22;36510;52.610;13.468;2022-10-31T09:24:37;15.50;57.60
50560;DHT22;36510;52.610;13.468;2022-10-31T09:29:27;15.60;57.20
50560;DHT22;36510;52.610;13.468;2022-10-31T09:34:18;15.60;57.10
50560;DHT22;36510;52.610;13.468;2022-10-31T09:39:08;15.70;57.50
50560;DHT22;36510;52.610;13.468;2022-10-31T09:44:10;15.80;57.00
50560;DHT22;36510;52.610;13.468;2022-10-31T09:59:37;15.90;57.80
50560;DHT22;36510;52.610;13.468;2022-10-31T10:04:43;15.90;58.20
50560;DHT22;36510;52.610;13.468;2022-10-31T10:09:34;16.00;59.70
50560;DHT22;36510;52.610;13.468;2022-10-31T10:14:37;16.10;58.60
50560;DHT22;36510;52.610;13.468;2022-10-31T10:25:16;16.40;57.50
50560;DHT22;36510;52.610;13.468;2022-10-31T10:30:19;16.50;56.30
50560;DHT22;36510;52.610;13.468;2022-10-31T10:35:31;16.60;55.90
50560;DHT22;36510;52.610;13.468;2022-10-31T10:40:25;16.80;56.50
50560;DHT22;36510;52.610;13.468;2022-10-31T10:45:18;17.00;55.60
50560;DHT22;36510;52.610;13.468;2022-10-31T10:50:52;17.20;53.30
50560;DHT22;36510;52.610;13.468;2022-10-31T10:56:03;17.40;53.60
50560;DHT22;36510;52.610;13.468;2022-10-31T11:00:57;17.50;51.20
50560;DHT22;36510;52.610;13.468;2022-10-31T11:05:55;17.50;52.30
50560;DHT22;36510;52.610;13.468;2022-10-31T11:16:12;17.90;50.60
50560;DHT22;36510;52.610;13.468;2022-10-31T11:21:04;18.00;49.20
50560;DHT22;36510;52.610;13.468;2022-10-31T11:26:02;18.20;47.90
50560;DHT22;36510;52.610;13.468;2022-10-31T11:31:01;18.30;47.30
50560;DHT22;36510;52.610;13.468;2022-10-31T11:35:55;18.30;46.60
50560;DHT22;36510;52.610;13.468;2022-10-31T11:41:19;18.50;47.70
50560;DHT22;36510;52.610;13.468;2022-10-31T11:46:16;18.70;46.50
50560;DHT22;36510;52.610;13.468;2022-10-31T11:51:08;18.80;44.60
50560;DHT22;36510;52.610;13.468;2022-10-31T11:56:12;18.90;44.30
50560;DHT22;36510;52.610;13.468;2022-10-31T12:01:03;19.10;43.60
50560;DHT22;36510;52.610;13.468;2022-10-31T12:06:05;19.30;42.50
50560;DHT22;36510;52.610;13.468;2022-10-31T12:15:58;19.40;41.70
50560;DHT22;36510;52.610;13.468;2022-10-31T12:21:00;19.50;42.40
50560;DHT22;36510;52.610;13.468;2022-10-31T12:36:29;19.70;40.70
50560;DHT22;36510;52.610;13.468;2022-10-31T12:41:52;19.70;39.20
50560;DHT22;36510;52.610;13.468;2022-10-31T12:52:05;19.90;38.10
50560;DHT22;36510;52.610;13.468;2022-10-31T13:02:57;19.90;37.10
50560;DHT22;36510;52.610;13.468;2022-10-31T13:08:06;19.90;37.10
50560;DHT22;36510;52.610;13.468;2022-10-31T13:13:02;20.00;37.60
50560;DHT22;36510;52.610;13.468;2022-10-31T13:17:59;20.00;36.90
50560;DHT22;36510;52.610;13.468;2022-10-31T13:22:55;19.80;36.80
50560;DHT22;36510;52.610;13.468;2022-10-31T13:27:58;19.80;37.20
50560;DHT22;36510;52.610;13.468;2022-10-31T13:33:00;19.80;39.10
50560;DHT22;36510;52.610;13.468;2022-10-31T13:38:02;19.80;38.90
50560;DHT22;36510;52.610;13.468;2022-10-31T13:43:10;19.70;38.60
50560;DHT22;36510;52.610;13.468;2022-10-31T13:58:28;19.60;39.50
50560;DHT22;36510;52.610;13.468;2022-10-31T14:03:20;19.50;40.20
50560;DHT22;36510;52.610;13.468;2022-10-31T14:08:20;19.40;40.00
50560;DHT22;36510;52.610;13.468;2022-10-31T14:13:18;19.30;40.30
50560;DHT22;36510;52.610;13.468;2022-10-31T14:18:23;19.20;40.60
50560;DHT22;36510;52.610;13.468;2022-10-31T14:23:34;19.20;41.40
50560;DHT22;36510;52.610;13.468;2022-10-31T14:28:34;19.10;41.70
50560;DHT22;36510;52.610;13.468;2022-10-31T14:33:30;19.00;42.30
50560;DHT22;36510;52.610;13.468;2022-10-31T14:38:26;18.90;42.30
50560;DHT22;36510;52.610;13.468;2022-10-31T14:48:38;18.70;43.40
50560;DHT22;36510;52.610;13.468;2022-10-31T14:53:35;18.60;44.00
50560;DHT22;36510;52.610;13.468;2022-10-31T15:03:49;18.40;44.20
50560;DHT22;36510;52.610;13.468;2022-10-31T15:08:45;18.30;44.40
50560;DHT22;36510;52.610;13.468;2022-10-31T15:13:42;18.20;45.10
50560;DHT22;36510;52.610;13.468;2022-10-31T15:18:32;18.00;45.70
50560;DHT22;36510;52.610;13.468;2022-10-31T15:23:27;17.90;46.10
50560;DHT22;36510;52.610;13.468;2022-10-31T15:28:23;17.80;46.50
50560;DHT22;36510;52.610;13.468;2022-10-31T15:33:23;17.70;47.00
50560;DHT22;36510;52.610;13.468;2022-10-31T15:38:14;17.50;47.20
50560;DHT22;36510;52.610;13.468;2022-10-31T15:43:05;17.40;47.30
50560;DHT22;36510;52.610;13.468;2022-10-31T15:48:00;17.30;48.00
50560;DHT22;36510;52.610;13.468;2022-10-31T15:52:51;17.30;48.80
50560;DHT22;36510;52.610;13.468;2022-10-31T15:57:44;17.20;49.20
50560;DHT22;36510;52.610;13.468;2022-10-31T16:02:35;17.20;49.50
50560;DHT22;36510;52.610;13.468;2022-10-31T16:07:26;17.10;50.10
50560;DHT22;36510;52.610;13.468;2022-10-31T16:12:18;17.00;51.20
50560;DHT22;36510;52.610;13.468;2022-10-31T16:17:16;17.00;51.30
50560;DHT22;36510;52.610;13.468;2022-10-31T16:22:13;17.00;52.40
50560;DHT22;36510;52.610;13.468;2022-10-31T16:27:06;16.90;52.60
50560;DHT22;36510;52.610;13.468;2022-10-31T16:31:57;16.90;53.30
50560;DHT22;36510;52.610;13.468;2022-10-31T16:36:47;16.90;53.30
50560;DHT22;36510;52.610;13.468;2022-10-31T16:41:40;16.90;53.80
50560;DHT22;36510;52.610;13.468;2022-10-31T16:46:31;16.80;54.40
50560;DHT22;36510;52.610;13.468;2022-10-31T16:51:22;16.80;55.30
50560;DHT22;36510;52.610;13.468;2022-10-31T16:56:18;16.80;55.50
50560;DHT22;36510;52.610;13.468;2022-10-31T17:01:12;16.80;55.80
50560;DHT22;36510;52.610;13.468;2022-10-31T17:06:03;16.80;56.20
50560;DHT22;36510;52.610;13.468;2022-10-31T17:10:55;16.70;56.20
50560;DHT22;36510;52.610;13.468;2022-10-31T17:15:49;16.70;57.20
50560;DHT22;36510;52.610;13.468;2022-10-31T17:20:41;16.70;56.50
50560;DHT22;36510;52.610;13.468;2022-10-31T17:25:32;16.70;56.50
50560;DHT22;36510;52.610;13.468;2022-10-31T17:30:23;16.70;57.00
50560;DHT22;36510;52.610;13.468;2022-10-31T17:35:14;16.60;57.20
50560;DHT22;36510;52.610;13.468;2022-10-31T17:40:05;16.60;57.90
50560;DHT22;36510;52.610;13.468;2022-10-31T17:44:56;16.60;58.50
50560;DHT22;36510;52.610;13.468;2022-10-31T17:49:46;16.60;58.50
50560;DHT22;36510;52.610;13.468;2022-10-31T17:54:37;16.50;58.70
50560;DHT22;36510;52.610;13.468;2022-10-31T17:59:27;16.40;59.30
50560;DHT22;36510;52.610;13.468;2022-10-31T18:04:19;16.40;59.50
50560;DHT22;36510;52.610;13.468;2022-10-31T18:09:10;16.40;60.00
50560;DHT22;36510;52.610;13.468;2022-10-31T18:14:01;16.40;60.30
50560;DHT22;36510;52.610;13.468;2022-10-31T18:18:53;16.40;60.30
50560;DHT22;36510;52.610;13.468;2022-10-31T18:23:45;16.40;59.80
50560;DHT22;36510;52.610;13.468;2022-10-31T18:28:37;16.40;59.80
50560;DHT22;36510;52.610;13.468;2022-10-31T18:33:27;16.40;60.20
50560;DHT22;36510;52.610;13.468;2022-10-31T18:38:19;16.40;60.20
50560;DHT22;36510;52.610;13.468;2022-10-31T18:43:09;16.40;59.90
50560;DHT22;36510;52.610;13.468;2022-10-31T18:47:59;16.40;60.40
50560;DHT22;36510;52.610;13.468;2022-10-31T18:52:50;16.40;61.00
50560;DHT22;36510;52.610;13.468;2022-10-31T18:57:40;16.40;60.90
50560;DHT22;36510;52.610;13.468;2022-10-31T19:02:31;16.40;60.90
50560;DHT22;36510;52.610;13.468;2022-10-31T19:07:22;16.40;60.80
50560;DHT22;36510;52.610;13.468;2022-10-31T19:12:12;16.40;60.80
50560;DHT22;36510;52.610;13.468;2022-10-31T19:17:03;16.40;60.30
50560;DHT22;36510;52.610;13.468;2022-10-31T19:21:53;16.40;60.00
50560;DHT22;36510;52.610;13.468;2022-10-31T19:26:45;16.40;60.20
50560;DHT22;36510;52.610;13.468;2022-10-31T19:31:36;16.40;60.00
50560;DHT22;36510;52.610;13.468;2022-10-31T19:36:26;16.40;59.90
50560;DHT22;36510;52.610;13.468;2022-10-31T19:41:21;16.30;60.50
50560;DHT22;36510;52.610;13.468;2022-10-31T19:46:13;16.30;60.90
50560;DHT22;36510;52.610;13.468;2022-10-31T19:51:07;16.30;60.60
50560;DHT22;36510;52.610;13.468;2022-10-31T19:55:58;16.30;60.60
50560;DHT22;36510;52.610;13.468;2022-10-31T20:00:48;16.30;60.40
50560;DHT22;36510;52.610;13.468;2022-10-31T20:05:40;16.30;60.40
50560;DHT22;36510;52.610;13.468;2022-10-31T20:10:31;16.20;60.10
50560;DHT22;36510;52.610;13.468;2022-10-31T20:15:21;16.20;60.20
50560;DHT22;36510;52.610;13.468;2022-10-31T20:20:12;16.10;60.40
50560;DHT22;36510;52.610;13.468;2022-10-31T20:25:03;16.10;60.50
50560;DHT22;36510;52.610;13.468;2022-10-31T20:29:54;16.10;60.70
50560;DHT22;36510;52.610;13.468;2022-10-31T20:34:44;16.10;60.90
50560;DHT22;36510;52.610;13.468;2022-10-31T20:39:35;16.00;61.20
50560;DHT22;36510;52.610;13.468;2022-10-31T20:44:25;16.10;61.10
50560;DHT22;36510;52.610;13.468;2022-10-31T20:49:16;16.10;60.80
50560;DHT22;36510;52.610;13.468;2022-10-31T20:54:07;16.10;59.70
50560;DHT22;36510;52.610;13.468;2022-10-31T20:59:00;16.10;60.00
50560;DHT22;36510;52.610;13.468;2022-10-31T21:03:51;16.10;59.70
50560;DHT22;36510;52.610;13.468;2022-10-31T21:08:43;16.00;59.50
50560;DHT22;36510;52.610;13.468;2022-10-31T21:13:41;16.00;60.10
50560;DHT22;36510;52.610;13.468;2022-10-31T21:18:34;15.80;61.60
50560;DHT22;36510;52.610;13.468;2022-10-31T21:23:25;15.70;62.60
50560;DHT22;36510;52.610;13.468;2022-10-31T21:28:15;15.60;64.30
50560;DHT22;36510;52.610;13.468;2022-10-31T21:33:06;15.60;64.90
50560;DHT22;36510;52.610;13.468;2022-10-31T21:37:56;15.50;66.30
50560;DHT22;36510;52.610;13.468;2022-10-31T21:42:47;15.60;66.10
50560;DHT22;36510;52.610;13.468;2022-10-31T21:47:38;15.60;65.70
50560;DHT22;36510;52.610;13.468;2022-10-31T21:52:28;15.50;66.50
50560;DHT22;36510;52.610;13.468;2022-10-31T21:57:19;15.50;66.50
50560;DHT22;36510;52.610;13.468;2022-10-31T22:02:09;15.50;66.50
50560;DHT22;36510;52.610;13.468;2022-10-31T22:07:01;15.50;67.30
50560;DHT22;36510;52.610;13.468;2022-10-31T22:11:51;15.50;66.50
50560;DHT22;36510;52.610;13.468;2022-10-31T22:16:42;15.50;66.50
50560;DHT22;36510;52.610;13.468;2022-10-31T22:21:38;15.60;66.60
50560;DHT22;36510;52.610;13.468;2022-10-31T22:26:29;15.70;66.60
50560;DHT22;36510;52.610;13.468;2022-10-31T22:31:21;15.70;66.10
50560;DHT22;36510;52.610;13.468;2022-10-31T22:36:14;15.70;66.00
50560;DHT22;36510;52.610;13.468;2022-10-31T22:41:07;15.70;66.00
50560;DHT22;36510;52.610;13.468;2022-10-31T22:46:00;15.70;65.50
50560;DHT22;36510;52.610;13.468;2022-10-31T22:50:53;15.70;66.20
50560;DHT22;36510;52.610;13.468;2022-10-31T22:55:43;15.70;65.10
50560;DHT22;36510;52.610;13.468;2022-10-31T23:00:34;15.60;65.80
50560;DHT22;36510;52.610;13.468;2022-10-31T23:05:24;15.50;66.50
50560;DHT22;36510;52.610;13.468;2022-10-31T23:10:15;15.50;66.50
50560;DHT22;36510;52.610;13.468;2022-10-31T23:15:06;15.30;67.50
50560;DHT22;36510;52.610;13.468;2022-10-31T23:19:56;15.30;68.30
50560;DHT22;36510;52.610;13.468;2022-10-31T23:24:47;15.20;68.50
50560;DHT22;36510;52.610;13.468;2022-10-31T23:34:30;15.10;69.70
50560;DHT22;36510;52.610;13.468;2022-10-31T23:39:21;15.10;69.60
50560;DHT22;36510;52.610;13.468;2022-10-31T23:44:11;15.10;69.90
50560;DHT22;36510;52.610;13.468;2022-10-31T23:49:02;15.00;69.80
50560;DHT22;36510;52.610;13.468;2022-10-31T23:53:53;15.10;70.20
50560;DHT22;36510;52.610;13.468;2022-10-31T23:58:43;15.10;69.70
